createdAt,value
2023-03-19T00:00:34.780Z,11.7
2023-03-19T00:03:04.952Z,11.7
2023-03-19T00:05:34.983Z,11.6
2023-03-19T00:08:04.833Z,11.6
2023-03-19T00:10:34.865Z,11.5
2023-03-19T00:13:04.889Z,11.5
2023-03-19T00:20:34.973Z,11.4
2023-03-19T00:23:04.974Z,11.3
2023-03-19T00:25:35.301Z,11.3
2023-03-19T00:30:35.105Z,11.2
2023-03-19T00:33:05.158Z,11.1
2023-03-19T00:35:35.291Z,11.1
2023-03-19T00:38:05.144Z,11.1
2023-03-19T00:40:35.158Z,11.1
2023-03-19T00:43:05.191Z,11
2023-03-19T00:45:35.379Z,11.1
2023-03-19T00:48:05.230Z,11
2023-03-19T00:50:35.242Z,11
2023-03-19T00:58:05.303Z,10.9
2023-03-19T01:00:35.348Z,10.9
2023-03-19T01:03:05.375Z,10.9
2023-03-19T01:05:35.413Z,10.8
2023-03-19T01:08:05.407Z,10.9
2023-03-19T01:10:35.414Z,11
2023-03-19T01:13:05.472Z,10.9
2023-03-19T01:15:35.489Z,10.9
2023-03-19T01:30:35.849Z,10.7
2023-03-19T01:33:05.682Z,10.7
2023-03-19T01:35:35.726Z,10.7
2023-03-19T01:38:05.671Z,10.7
2023-03-19T01:40:35.839Z,10.6
2023-03-19T01:43:05.766Z,10.5
2023-03-19T01:48:05.784Z,10.3
2023-03-19T01:53:05.841Z,10.2
2023-03-19T01:55:35.846Z,10.2
2023-03-19T01:58:05.881Z,10.3
2023-03-19T02:03:05.911Z,10.4
2023-03-19T02:05:35.945Z,10.4
2023-03-19T02:10:36.245Z,10.4
2023-03-19T02:13:06.032Z,10.4
2023-03-19T02:18:06.059Z,10.4
2023-03-19T02:23:06.101Z,10.4
2023-03-19T02:25:36.138Z,10.4
2023-03-19T04:30:37.673Z,9.3
2023-03-19T04:33:07.445Z,9.3
2023-03-19T04:38:07.372Z,9.3
2023-03-19T04:45:37.438Z,9.39
2023-03-19T04:48:07.465Z,9.5
2023-03-19T04:50:37.481Z,9.5
2023-03-19T04:55:37.559Z,9.6
2023-03-19T04:58:07.551Z,9.6
2023-03-19T05:03:07.604Z,9.6
2023-03-19T05:05:37.636Z,9.3
2023-03-19T05:08:07.658Z,9.2
2023-03-19T05:10:37.682Z,9.2
2023-03-19T05:13:07.686Z,9.3
2023-03-19T05:15:37.799Z,9.3
2023-03-19T05:18:07.744Z,9.2
2023-03-19T05:20:37.767Z,9.1
2023-03-19T05:23:07.787Z,9.1
2023-03-19T05:25:37.809Z,9.1
2023-03-19T05:28:07.850Z,9.2
2023-03-19T05:30:37.864Z,9.2
2023-03-19T05:33:07.923Z,9.2
2023-03-19T05:35:37.986Z,9.2
2023-03-19T05:38:07.936Z,9.1
2023-03-19T05:40:37.990Z,9.1
2023-03-19T05:43:07.984Z,9.1
2023-03-19T05:48:08.016Z,9
2023-03-19T05:50:38.060Z,9
2023-03-19T05:53:08.074Z,9
2023-03-19T05:58:08.124Z,9.3
2023-03-19T06:03:08.222Z,9.3
2023-03-19T06:05:38.199Z,9.3
2023-03-19T06:08:08.223Z,9.3
2023-03-19T06:10:38.223Z,9.3
2023-03-19T06:13:08.266Z,9.2
2023-03-19T06:15:38.279Z,9.2
2023-03-19T06:20:38.373Z,9.5
2023-03-19T06:23:08.372Z,9.5
2023-03-19T06:25:38.384Z,9.6
2023-03-19T06:28:08.401Z,9.6
2023-03-19T06:30:38.414Z,9.6
2023-03-19T06:33:08.595Z,9.6
2023-03-19T06:35:38.526Z,9.5
2023-03-19T06:38:08.503Z,9.6
2023-03-19T06:40:38.514Z,9.7
2023-03-19T06:43:08.544Z,9.8
2023-03-19T06:45:38.598Z,9.8
2023-03-19T06:48:08.594Z,9.8
2023-03-19T06:55:38.674Z,9.89
2023-03-19T06:58:08.663Z,9.89
2023-03-19T07:00:38.713Z,9.89
2023-03-19T07:03:08.735Z,9.89
2023-03-19T07:05:38.736Z,10
2023-03-19T07:08:08.789Z,9.89
2023-03-19T07:10:38.802Z,9.89
2023-03-19T07:13:08.844Z,9.8
2023-03-19T07:15:38.862Z,9.89
2023-03-19T07:18:08.872Z,10
2023-03-19T07:23:08.947Z,10.2
2023-03-19T07:25:38.953Z,10.3
2023-03-19T07:28:08.959Z,10.4
2023-03-19T07:30:38.985Z,10.5
2023-03-19T07:33:09.098Z,10.6
2023-03-19T07:35:39.052Z,10.7
2023-03-19T07:40:43.399Z,10.8
2023-03-19T07:43:09.117Z,10.9
2023-03-19T07:45:39.176Z,11
2023-03-19T07:48:09.156Z,11.1
2023-03-19T07:53:09.210Z,11
2023-03-19T07:55:39.222Z,11.1
2023-03-19T07:58:09.280Z,11.1
2023-03-19T08:03:09.328Z,11.1
2023-03-19T08:05:39.327Z,11.1
2023-03-19T08:08:09.369Z,11.2
2023-03-19T08:10:39.565Z,11.2
2023-03-19T08:13:09.400Z,11.3
2023-03-19T08:15:39.405Z,11.4
2023-03-19T08:18:09.465Z,11.4
2023-03-19T08:20:39.451Z,11.4
2023-03-19T08:23:09.486Z,11.5
2023-03-19T08:25:39.517Z,11.5
2023-03-19T08:28:09.550Z,11.5
2023-03-19T08:30:39.638Z,11.6
2023-03-19T08:33:09.649Z,11.5
2023-03-19T08:38:09.651Z,11.6
2023-03-19T08:40:39.663Z,11.7
2023-03-19T08:43:09.680Z,11.7
2023-03-19T08:45:39.688Z,11.8
2023-03-19T08:48:09.722Z,11.9
2023-03-19T08:50:39.744Z,11.9
2023-03-19T08:53:09.789Z,11.8
2023-03-19T08:55:39.804Z,11.7
2023-03-19T08:58:09.833Z,11.7
2023-03-19T09:03:09.870Z,11.8
2023-03-19T09:05:39.886Z,12
2023-03-19T09:08:09.910Z,11.9
2023-03-19T09:10:39.978Z,12
2023-03-19T09:13:09.953Z,12.2
2023-03-19T09:15:40.057Z,12.3
2023-03-19T09:20:40.048Z,11.9
2023-03-19T09:23:10.059Z,12
2023-03-19T09:25:40.071Z,11.9
2023-03-19T09:28:10.118Z,11.9
2023-03-19T09:30:40.141Z,11.9
2023-03-19T09:33:10.312Z,11.7
2023-03-19T09:35:40.220Z,11.6
2023-03-19T09:38:10.238Z,11.5
2023-03-19T09:40:40.212Z,11.4
2023-03-19T09:43:10.254Z,11.5
2023-03-19T09:45:40.275Z,11.5
2023-03-19T09:48:10.293Z,11.6
2023-03-19T09:55:40.373Z,11.8
2023-03-19T09:58:10.388Z,11.9
2023-03-19T10:00:40.410Z,11.9
2023-03-19T10:03:10.451Z,12
2023-03-19T10:05:40.451Z,12.1
2023-03-19T10:08:11.487Z,12.1
2023-03-19T10:10:40.521Z,12.2
2023-03-19T10:13:10.553Z,12.2
2023-03-19T10:15:40.548Z,12.2
2023-03-19T10:18:10.563Z,12.2
2023-03-19T10:20:40.606Z,12.2
2023-03-19T10:23:10.633Z,12.3
2023-03-19T10:28:10.680Z,12.5
2023-03-19T10:33:10.795Z,12.6
2023-03-19T10:35:40.813Z,12.7
2023-03-19T10:40:40.792Z,13.1
2023-03-19T10:43:10.822Z,13.2
2023-03-19T10:45:41.385Z,13.2
2023-03-19T10:50:40.883Z,13.2
2023-03-19T10:53:10.908Z,13.3
2023-03-19T10:55:40.938Z,13.2
2023-03-19T10:58:10.951Z,13.2
2023-03-19T11:00:40.980Z,13.3
2023-03-19T11:03:10.992Z,13.4
2023-03-19T11:05:41.028Z,13.4
2023-03-19T11:08:11.048Z,13.5
2023-03-19T11:10:41.050Z,13.5
2023-03-19T11:15:41.129Z,13.7
2023-03-19T11:18:11.137Z,13.9
2023-03-19T11:20:41.161Z,14.1
2023-03-19T11:23:11.181Z,14.3
2023-03-19T11:25:41.216Z,14.5
2023-03-19T11:28:11.236Z,14.9
2023-03-19T11:30:41.256Z,14.9
2023-03-19T11:33:11.312Z,14.7
2023-03-19T11:35:41.323Z,14.7
2023-03-19T11:38:11.328Z,14.6
2023-03-19T11:40:41.344Z,14.9
2023-03-19T11:50:41.463Z,15
2023-03-19T11:53:11.474Z,14.7
2023-03-19T11:55:41.476Z,14.6
2023-03-19T12:00:41.553Z,14.5
2023-03-19T12:03:11.599Z,14.5
2023-03-19T12:05:41.586Z,14.1
2023-03-19T12:08:11.612Z,14
2023-03-19T12:13:11.677Z,13.8
2023-03-19T12:18:11.707Z,14.2
2023-03-19T12:20:41.717Z,14.1
2023-03-19T12:23:11.752Z,14.1
2023-03-19T12:25:41.860Z,14.4
2023-03-19T12:28:11.791Z,14.6
2023-03-19T12:30:41.833Z,14.7
2023-03-19T12:33:11.952Z,14.7
2023-03-19T12:35:42.049Z,14.7
2023-03-19T12:40:41.942Z,14.9
2023-03-19T12:43:11.918Z,15
2023-03-19T12:45:41.962Z,15.1
2023-03-19T12:48:11.968Z,15.6
2023-03-19T12:50:42.023Z,15.9
2023-03-19T12:53:12.012Z,16.1
2023-03-19T12:55:42.067Z,15.7
2023-03-19T13:03:12.120Z,15.3
2023-03-19T13:05:42.132Z,15.3
2023-03-19T13:08:12.168Z,15.2
2023-03-19T13:13:12.227Z,14.8
2023-03-19T13:15:42.245Z,14.7
2023-03-19T13:18:12.279Z,14.6
2023-03-19T13:23:12.305Z,14.6
2023-03-19T13:25:42.351Z,14.4
2023-03-19T13:28:12.355Z,14
2023-03-19T13:30:42.389Z,14
2023-03-19T13:33:12.569Z,14.1
2023-03-19T13:35:42.468Z,14
2023-03-19T13:38:12.448Z,13.5
2023-03-19T13:40:42.505Z,13.3
2023-03-19T13:43:27.283Z,13
2023-03-19T13:50:42.636Z,13.3
2023-03-19T13:53:12.580Z,13.4
2023-03-19T13:55:42.621Z,13.7
2023-03-19T13:58:12.668Z,13.8
2023-03-19T14:03:12.707Z,14.2
2023-03-19T14:05:42.729Z,14.1
2023-03-19T14:10:42.754Z,14
2023-03-19T14:15:42.805Z,14.3
2023-03-19T14:18:12.816Z,14.4
2023-03-19T14:25:42.933Z,14.4
2023-03-19T14:28:12.927Z,14.6
2023-03-19T14:30:42.961Z,14.7
2023-03-19T14:38:13.015Z,17
2023-03-19T14:40:43.037Z,17.9
2023-03-19T14:48:13.120Z,18.6
2023-03-19T14:50:43.125Z,19
2023-03-19T14:55:43.165Z,19.79
2023-03-19T14:58:13.237Z,20.6
2023-03-19T15:00:43.225Z,20.7
2023-03-19T15:03:13.242Z,20.6
2023-03-19T15:05:43.268Z,19.2
2023-03-19T15:10:43.327Z,19.4
2023-03-19T15:13:13.345Z,21.3
2023-03-19T15:15:43.368Z,21.1
2023-03-19T15:20:43.420Z,21.7
2023-03-19T15:28:13.923Z,20.1
2023-03-19T15:30:54.823Z,21.3
2023-03-19T15:35:43.569Z,20.4
2023-03-19T15:38:13.578Z,18
2023-03-19T15:40:43.612Z,18.29
2023-03-19T15:43:13.644Z,21.1
2023-03-19T15:45:43.800Z,23.5
2023-03-19T15:48:13.673Z,24
2023-03-19T15:50:43.700Z,23
2023-03-19T15:53:13.713Z,20
2023-03-19T16:03:13.813Z,20.1
2023-03-19T16:08:13.877Z,19.6
2023-03-19T16:15:44.018Z,19.5
2023-03-19T16:18:13.968Z,20.7
2023-03-19T16:20:45.874Z,20.6
2023-03-19T16:25:44.029Z,18.4
2023-03-19T16:28:14.068Z,18.79
2023-03-19T16:30:44.080Z,17.4
2023-03-19T16:33:14.207Z,16.4
2023-03-19T16:38:14.158Z,18.29
2023-03-19T16:40:44.178Z,19.2
2023-03-19T16:43:14.195Z,17
2023-03-19T16:45:44.224Z,16.1
2023-03-19T16:50:44.255Z,14.7
2023-03-19T16:53:14.283Z,14.6
2023-03-19T16:55:44.322Z,14.5
2023-03-19T16:58:14.328Z,14.2
2023-03-19T17:03:14.383Z,14.2
2023-03-19T17:05:44.394Z,14.2
2023-03-19T17:08:14.474Z,14.1
2023-03-19T17:10:44.439Z,13.8
2023-03-19T17:15:44.570Z,13.4
2023-03-19T17:18:14.522Z,13.3
2023-03-19T17:20:44.555Z,13.2
2023-03-19T17:23:14.552Z,13.1
2023-03-19T17:25:44.597Z,13
2023-03-19T17:28:14.622Z,13.1
2023-03-19T17:30:44.656Z,13.1
2023-03-19T17:33:14.758Z,13
2023-03-19T17:38:14.719Z,12.7
2023-03-19T17:40:44.751Z,12.6
2023-03-19T17:45:44.782Z,12.2
2023-03-19T17:48:14.799Z,12.1
2023-03-19T17:50:44.841Z,12
2023-03-19T17:53:14.851Z,11.9
2023-03-19T17:55:44.894Z,11.8
2023-03-19T17:58:14.887Z,11.7
2023-03-19T18:00:45.001Z,11.8
2023-03-19T18:05:44.974Z,11.5
2023-03-19T18:08:14.995Z,11.4
2023-03-19T18:10:45.037Z,11.5
2023-03-19T18:13:15.057Z,11.5
2023-03-19T18:15:45.089Z,11.5
2023-03-19T18:18:15.094Z,11.5
2023-03-19T18:20:45.143Z,11.7
2023-03-19T18:23:15.140Z,11.7
2023-03-19T18:25:45.231Z,11.8
2023-03-19T18:28:15.193Z,11.9
2023-03-19T18:30:45.220Z,12
2023-03-19T18:35:45.350Z,12.1
2023-03-19T18:38:15.284Z,12.2
2023-03-19T18:40:45.326Z,12.3
2023-03-19T18:43:16.356Z,12.2
2023-03-19T18:45:45.446Z,12.1
2023-03-19T18:48:15.382Z,12
2023-03-19T18:53:15.410Z,11.9
2023-03-19T18:58:15.492Z,11.7
2023-03-19T19:03:15.508Z,11.6
2023-03-19T19:05:45.548Z,11.7
2023-03-19T19:08:15.571Z,11.7
2023-03-19T19:10:45.596Z,11.6
2023-03-19T19:18:15.652Z,11.6
2023-03-19T19:20:45.689Z,11.5
2023-03-19T19:23:15.696Z,11.5
2023-03-19T19:25:45.730Z,11.5
2023-03-19T19:28:15.883Z,11.4
2023-03-19T19:30:45.824Z,11.3
2023-03-19T19:33:15.894Z,11.3
2023-03-19T19:35:45.831Z,11.3
2023-03-19T19:45:45.947Z,11.4
2023-03-19T19:48:15.944Z,11.3
2023-03-19T19:50:45.979Z,11.3
2023-03-19T19:53:15.998Z,11.2
2023-03-19T19:55:46.032Z,11.2
2023-03-19T19:58:16.041Z,11.1
2023-03-19T20:00:56.625Z,11.1
2023-03-19T20:03:16.094Z,11.1
2023-03-19T20:05:46.127Z,11
2023-03-19T20:08:16.148Z,11.1
2023-03-19T20:10:46.152Z,11.1
2023-03-19T20:13:16.167Z,11.1
2023-03-19T20:15:46.246Z,11.1
2023-03-19T20:18:16.230Z,11
2023-03-19T20:20:46.247Z,11
2023-03-19T20:25:46.311Z,10.9
2023-03-19T20:30:46.384Z,11
2023-03-19T20:33:16.471Z,11
2023-03-19T20:35:46.477Z,10.9
2023-03-19T20:40:46.450Z,10.9
2023-03-19T20:43:16.522Z,10.9
2023-03-19T20:45:46.503Z,10.9
2023-03-19T20:48:16.549Z,10.8
2023-03-19T20:50:46.615Z,10.8
2023-03-19T20:53:16.561Z,10.8
2023-03-19T20:55:46.581Z,10.8
2023-03-19T20:58:16.591Z,10.7
2023-03-19T21:03:16.695Z,10.8
2023-03-19T21:05:46.694Z,10.8
2023-03-19T21:08:16.707Z,10.8
2023-03-19T21:10:46.740Z,10.8
2023-03-19T21:15:46.780Z,10.8
2023-03-19T21:18:16.807Z,10.8
2023-03-19T21:20:46.807Z,10.9
2023-03-19T21:23:16.832Z,10.8
2023-03-19T21:25:46.908Z,10.7
2023-03-19T21:28:16.876Z,10.8
2023-03-19T21:33:17.044Z,10.7
2023-03-19T21:35:47.008Z,10.6
2023-03-19T21:48:17.133Z,10.5
2023-03-19T21:50:47.102Z,10.6
2023-03-19T21:53:17.140Z,10.4
2023-03-19T21:55:47.162Z,10.5
2023-03-19T22:00:47.202Z,10.4
2023-03-19T22:03:17.227Z,10.4
2023-03-19T22:05:47.226Z,10.5
2023-03-19T22:08:17.272Z,10.5
2023-03-19T22:13:17.310Z,10.4
2023-03-19T22:15:47.326Z,10.4
2023-03-19T22:18:17.370Z,10.4
2023-03-19T22:20:47.379Z,10.4
2023-03-19T22:23:17.397Z,10.5
2023-03-19T22:25:47.442Z,10.5
2023-03-19T22:28:17.465Z,10.4
2023-03-19T22:30:47.493Z,10.4
2023-03-19T22:33:17.499Z,10.4
2023-03-19T23:08:17.828Z,9.8
2023-03-19T23:10:47.832Z,9.7
2023-03-19T23:13:17.875Z,9.6
2023-03-19T23:15:47.887Z,9.5
2023-03-19T23:18:17.918Z,9.5
2023-03-19T23:20:47.941Z,9.5
2023-03-19T23:23:17.944Z,9.5
2023-03-19T23:25:47.995Z,9.5
2023-03-19T23:30:48.093Z,9.39
2023-03-19T23:33:18.055Z,9.39
2023-03-19T23:35:48.120Z,9.39
2023-03-19T23:38:18.111Z,9.39
2023-03-19T23:40:48.116Z,9.3
2023-03-19T23:43:18.154Z,9.3
2023-03-19T23:45:48.191Z,9.3
2023-03-19T23:48:18.181Z,9.2
2023-03-19T23:50:48.242Z,9.3
2023-03-19T23:53:18.226Z,9.3
2023-03-19T23:58:18.291Z,9.2
